CVLO2: Caney R. Collinsville,Ok

                                SHEF ID:       CVLO2     Caney River near Collinsville, O
STATION TYPE:
Regulating: Stage = 26.00, Flow = 13763

PRECIP STAGE RIV-FLOW BAT-LOAD
in ft cfs volt
Ccp-Rev Ccp-Rev Ccp-Rev Ccp-Rev
(America/Chicago)
04/25 00:00 0.00 19.53 8007 12.43
04/25 01:00 0.00 19.27 7826 12.41
04/25 02:00 0.00 18.98 7624 12.40
04/25 03:00 0.00 18.65 7395 12.39
04/25 04:00 0.00 18.31 7160 12.36
04/25 05:00 0.00 17.93 6899 12.34
04/25 06:00 0.00 17.56 6647 12.31
04/25 07:00 0.00 17.17 6382 12.30
04/25 08:00 0.00 16.78 6118 12.28
04/25 09:00 0.00 16.39 5856 12.46
04/25 10:00 0.00 16.00 5596 12.62
04/25 11:00 0.00 15.60 5331 12.70
04/25 12:00 0.00 15.22 5081 12.80
04/25 13:00 0.00 14.83 4826 12.70
04/25 14:00 0.00 14.47 4592 12.80
04/25 15:00 0.00 14.13 4373 12.70
04/25 16:00 0.00 13.80 4163 12.71
04/25 17:00 0.00 13.49 4002 12.80
04/25 18:00 0.00 13.18 3841 12.54
04/25 19:00 0.00 12.90 3695 12.57
04/25 20:00 0.05 12.65 3565 12.42
04/25 21:00 0.05 12.41 3439 12.42
04/25 22:00 0.00 12.19 3324 12.67
04/25 23:00 ---- 11.98 ---- 12.40
Data processed at Sun 26Apr2026 04:44 GMT

NOTICE: If you are parsing this page

Please convert to using our Data API. Starting early 2026 we will be migrating to: https://water.usace.army.mil with modern pages rendered in JavaScript. When this migration completes you will no longer be able to scrape this page! CWMSDataAPI (CDA)

Timeseries IDs (TSIDs)

TSIDs used from left to right in the data table
COLL.Precip-Inc.Total.1Hour.1Hour.Ccp-Rev
COLL.Stage.Inst.1Hour.0.Ccp-Rev
COLL.Flow.Inst.1Hour.0.Ccp-Rev
COLL.Volt-Battery Load.Inst.1Hour.0.Ccp-Rev

                            

All information presented herein is the property of the government of the United States of America and may be revised or deleted at any time without prior notice. Dissemination of this information without the expressed written consent of the Public Affairs Office, Tulsa District U.S. Army Corps of Engineers is strictly prohibited. These data are gathered electronically and, as presented, have NOT undergone any form of quality control. These data are NOT guaranteed to be valid or correct.